ACT        NSW        VIC        QLD        SA        WA        TAS        NT        INFO        CALC            by VK5ZD

  Atmospheric Gas Attenuation - ITU Rec 676-11   --------------- db/100km ---------------
Station Date Time Temp RH % AH g/m3 Dew Point Wind Direction Speed kph Gust kph Barometer mB Rainfall Since 9am 24GHz 47GHz 76GHz 122GHz 134GHz 241GHz
Alice Springs Airport 06 18:50 34.2 12 4.55 0.8 15 17 1005.3 0 10.4 15.8 19.3 50.0 38.0 128.6
Batchelor 06 18:50 30.8 64 20.27 23.2 7 7 1013.1 0 43.0 39.6 77.2 204.2 226.4 787.3
Borroloola 06 18:50 31 48 15.37 18.7 0 0 1004 0 32.8 30.9 55.9 147.7 157.4 546.9
Bradshaw 06 18:50 34.2 39 14.79 18.3 15 17 1005.4 0 31.4 29.0 51.6 136.3 144.2 501.1
Bradshaw-Angallari Valley (Defence) 06 18:50 34.7 42 16.35 20.2 6 7 1013.1 0 34.5 31.5 57.5 152.0 163.3 567.9
Bradshaw-Koolendong Valley 06 18:50 31.6 62 20.49 23.6 11 15 1013.1 0 43.4 39.7 77.3 204.7 227.3 790.3
Cape Wessel 06 18:50 28.1 74 20.24 23 17 19 1007.4 0 43.3 40.6 79.4 210.3 233.4 811.0
Central Arnhem Plateau 06 18:50 31 56 17.93 21.2 13 17 1005.3 0 38.2 35.1 66.3 175.5 191.5 665.9
Centre Island 06 18:50 31.1 71 22.85 25.4 20 22 1004.5 0 48.5 43.9 88.2 233.6 262.9 914.1
Channel Point 06 09:00 30.5 78 24.31 26.3 9 1008.9 0 51.6 47.3 96.3 255.1 288.9 1004.5
Charles Point 06 18:50 29.6 97 28.79 29 17 20 1013.1 0.2 61.2 57.5 121.5 321.8 370.3 1286.4
Croker Island Airport 06 18:50 29.4 77 22.61 25.1 20 24 1013.1 0 48.1 44.7 89.6 237.3 266.7 927.0
Curtin Springs 06 15:00 38 17 7.85 8.7 4 1005 0 17.0 18.8 27.3 71.4 65.4 225.4
Daly Waters 06 18:50 33.8 44 16.34 20.2 2 4 1013.1 0 34.6 31.8 58.1 153.6 165.1 574.0
Darwin Airport 06 18:50 29.9 76 22.93 25.2 17 19 1006.6 0 48.8 44.8 90.1 238.7 268.8 934.4
Darwin Harbour 06 18:50 29.7 77 22.98 25.2 22 28 1013.1 0 48.8 45.3 91.1 241.1 271.4 943.6
Delamere 06 18:50 33.2 55 19.79 23.2 6 6 1003.8 0 41.8 37.3 72.2 191.1 211.3 734.9
Douglas River 06 18:50 32.1 62 21.05 23.9 7 9 1005.4 0 44.6 40.1 78.8 208.8 232.7 809.3
Elliott 06 09:00 29 61 17.52 20.7 7 1007.8 0 37.5 35.4 66.4 175.7 191.2 664.4
Gove Airport 06 18:50 27.9 76 20.56 23.3 17 20 1007 5 44.0 41.3 81.1 214.7 238.8 829.9
Groote Eylandt Airport 06 18:50 29.6 79 23.45 25.6 9 11 1005.8 0 49.9 45.9 93.0 246.3 278.0 966.4
Jabiru 06 18:50 30 60 18.2 21.4 6 7 1006.3 0 38.8 36.1 68.4 181.0 198.0 688.2
Jervois 06 18:50 33.9 7 2.61 -6.7 7 9 1005.7 0 6.5 13.9 14.5 37.1 21.9 71.8
Kangaroo Flats (Defence) 06 18:50 30.3 68 20.96 23.7 6 7 1013.1 0 44.5 41.1 80.8 213.9 238.2 828.2
Lajamanu 06 18:50 35.9 25 10.36 12.8 0 0 1003.5 0 22.2 22.3 35.5 93.3 91.9 318.3
Maningrida Airport 06 18:50 23.6 93 19.78 22.4 15 19 1006.6 12.2 42.8 41.9 82.0 217.0 240.4 834.8
Mcarthur River Mine 06 18:50 32.6 22 7.67 8.1 7 7 1003.9 0 16.8 19.7 28.5 74.5 67.9 233.6
Mccluer Island 06 18:50 29.5 80 23.62 25.7 35 39 1006.9 0 50.3 46.4 94.0 249.0 281.3 977.9
Middle Point 06 18:50 30.9 66 21.01 24 15 19 1013.1 0 44.6 40.9 80.4 212.8 237.1 824.3
Milingimbi 06 18:50 25.4 84 19.78 22.5 17 24 1006 0 42.6 41.0 80.0 211.8 234.5 814.7
Mount Bundey North (Defence) 06 18:50 28.9 66 18.86 22.1 4 7 1013.1 0 40.3 38.0 72.7 192.3 211.3 734.5
Mount Bundey South (Defence) 06 18:50 29.3 67 19.56 22.7 4 4 1013.1 0 41.7 39.0 75.5 199.7 220.4 766.3
Murganella Airstrip 06 18:50 29.8 76 22.8 25.1 6 6 1013.1 0 48.4 44.9 90.1 238.5 268.2 932.5
Ngayawili (Elcho Island) 06 18:50 29.1 87 25.13 26.7 22 26 1006.8 15.2 53.5 49.7 102.2 270.7 307.7 1069.4
Ngukurr Aws 06 18:50 34.1 55 20.75 24 0 0 1013.1 0 43.6 39.0 76.0 201.2 223.6 777.8
Noonamah 06 18:50 30.5 70 21.81 24.6 11 15 1013.1 0 46.3 42.6 84.5 223.8 250.4 870.7
Oenpelli Airport 06 18:50 30 78 23.66 25.7 9 13 1013.1 0 50.2 46.5 94.0 249.0 281.2 977.5
Pirlangimpi 06 18:50 29.2 73 21.2 24 7 11 1013.1 0 45.1 42.1 83.1 220.0 245.4 853.0
Point Fawcett 06 18:50 29.6 81 24.04 26 15 19 1006.9 0 51.1 47.2 96.0 254.3 287.7 1000.1
Rabbit Flat 06 18:50 35.4 28 11.31 14.6 7 7 1003.5 0 24.2 23.7 38.7 102.1 102.5 355.4
Tennant Creek 06 18:50 35.3 10 4.02 -0.9 7 9 1004.3 0 9.3 15.1 17.7 45.7 33.0 111.1
Territory Grape Farm 06 18:50 32.8 16 5.64 3.7 7 7 1013.1 0 12.7 17.5 22.8 59.3 48.8 166.4
Tindal 06 18:50 32 65 21.95 24.6 7 9 1005.1 0 46.5 41.8 83.0 219.9 246.3 856.4
Victoria River Downs 06 18:50 35.7 35 14.36 17.9 1003.3 0 30.4 27.8 49.0 129.4 136.2 473.4
Wadeye (Port Keats) 06 18:50 30.4 68 21.08 23.8 7 9 1006.1 0 44.8 41.0 80.8 214.0 238.6 829.5
Walungurru (Kintore) 06 18:50 38.3 11 5.16 2.7 7 9 1003.5 0 11.5 15.8 19.9 51.8 41.3 140.5
Warruwi 06 18:50 29.6 77 22.85 25.1 11 17 1013.1 0 48.6 45.1 90.5 239.8 269.7 937.7
Yulara 06 18:50 35.2 19 7.59 8.1 15 19 1003.5 0 16.6 19.0 27.4 71.6 65.0 223.8

Last Refresh: 06-Mar-2021 19:59:36

The information presented on this site is sourced from the Bureau of Meteorology.  Copyright in all material sourced from the Bureau of Meteorology resides with the Commonwealth of Australia.